Atmore, Alabama
Current Conditions -  °F | °C
As of 5:56 AM on Monday 20 Oct 2014 (Local Time) from KNSE Reporting Station
Clear Clear  
Wind Chill:   Ceiling: Unl
Heat Index:   Visibility: 10mi
Dew Point:   Wind: 6mph
Humidity: 90%   Direction: 360°N
Pressure: 30.05"   Gusts: NA
Location:  31.03°N, 87.49°W
Report Text: KNSE 201056Z 36005KT 10SM CLR 08/07 A3005 RMK AO2 SLP162 T00830067 $
Loading
Personal Weather Stations






























Interactive Weather Map
Tropical Storm Tracking
New forecast layout! Learn more

10-Day Weather Forecast

Advertisements
Track Severe Weather on mobile